Time;durP1;ratioP1;P1;durP2;ratioP2;P2;SDS_P1;SDS_P2;PMS_P1;PMS_P2;Temp;Humidity;BMP_temperature;BMP_pressure;BME280_temperature;BME280_humidity;BME280_pressure;Samples;Min_cycle;Max_cycle;Signal;HPM_P1;HPM_P2
2021/11/20 00:00:41;;;;;;;2.83;2.43;;;20.00;59.60;;;;;;4939174;29;20490;-80
2021/11/20 00:03:10;;;;;;;4.07;2.67;;;20.00;59.70;;;;;;4939812;29;20913;-79
2021/11/20 00:05:43;;;;;;;7.53;2.60;;;20.00;59.60;;;;;;4937086;29;20550;-79
2021/11/20 00:08:11;;;;;;;3.37;2.50;;;20.00;59.50;;;;;;4936370;29;20498;-80
2021/11/20 00:10:40;;;;;;;4.73;2.80;;;20.00;59.60;;;;;;4935490;29;20482;-80
2021/11/20 00:13:08;;;;;;;3.73;2.30;;;20.00;59.60;;;;;;4936806;29;20478;-79
2021/11/20 00:15:41;;;;;;;8.40;2.40;;;20.00;59.60;;;;;;4937235;29;20476;-79
2021/11/20 00:18:10;;;;;;;3.77;2.47;;;20.00;60.30;;;;;;4933026;29;20411;-80
2021/11/20 00:20:45;;;;;;;2.60;2.17;;;20.00;59.60;;;;;;4935421;28;20506;-77
2021/11/20 00:23:14;;;;;;;3.17;2.77;;;20.00;59.70;;;;;;4937427;29;20454;-77
2021/11/20 00:25:48;;;;;;;3.20;2.70;;;20.00;59.60;;;;;;4939296;29;20423;-76
2021/11/20 00:28:20;;;;;;;2.83;2.40;;;20.00;59.70;;;;;;4939178;29;20510;-79
2021/11/20 00:30:54;;;;;;;5.23;2.60;;;20.00;59.70;;;;;;4935259;29;20571;-78
2021/11/20 00:33:25;;;;;;;3.40;2.63;;;20.00;59.70;;;;;;4938361;29;20475;-76
2021/11/20 00:35:54;;;;;;;3.10;2.30;;;20.00;59.60;;;;;;4940662;29;20460;-77
2021/11/20 00:38:22;;;;;;;5.47;2.70;;;20.00;59.60;;;;;;4935918;29;20471;-80
2021/11/20 00:40:52;;;;;;;4.80;2.70;;;20.00;59.70;;;;;;4941301;29;20514;-77
2021/11/20 00:43:20;;;;;;;3.30;2.50;;;19.90;59.50;;;;;;4941260;29;20559;-78
2021/11/20 00:45:49;;;;;;;3.77;2.70;;;20.00;59.60;;;;;;4940621;28;20480;-78
2021/11/20 00:48:18;;;;;;;4.00;2.40;;;20.00;59.60;;;;;;4941163;29;20436;-79
2021/11/20 00:50:49;;;;;;;4.23;2.40;;;19.90;59.60;;;;;;4941686;29;20522;-77
2021/11/20 00:53:17;;;;;;;6.53;2.50;;;19.90;59.60;;;;;;4939325;29;20943;-78
2021/11/20 00:55:45;;;;;;;2.40;2.20;;;19.90;59.60;;;;;;4939211;29;20524;-76
2021/11/20 00:58:13;;;;;;;5.73;2.83;;;19.90;59.60;;;;;;4938604;29;20410;-77
2021/11/20 01:00:43;;;;;;;6.10;2.57;;;19.90;59.60;;;;;;4920003;29;20810;-77
2021/11/20 01:03:12;;;;;;;6.97;2.90;;;20.00;59.60;;;;;;4927586;29;20440;-78
2021/11/20 01:05:42;;;;;;;2.53;2.30;;;20.00;59.60;;;;;;4938132;29;20801;-78
2021/11/20 01:08:15;;;;;;;4.10;2.53;;;19.90;59.60;;;;;;4938750;29;20487;-77
2021/11/20 01:10:44;;;;;;;2.50;2.30;;;19.90;59.70;;;;;;4939435;29;20478;-75
2021/11/20 01:13:13;;;;;;;4.17;2.93;;;19.90;59.60;;;;;;4938321;29;20516;-78
2021/11/20 01:15:42;;;;;;;4.80;2.80;;;19.90;59.70;;;;;;4938937;29;20447;-77
2021/11/20 01:18:10;;;;;;;3.00;2.47;;;19.90;60.40;;;;;;4939980;29;20452;-78
2021/11/20 01:20:38;;;;;;;6.30;2.80;;;19.90;59.70;;;;;;4939960;29;20527;-80
2021/11/20 01:23:07;;;;;;;3.93;2.43;;;19.90;59.80;;;;;;4940585;29;20490;-78
2021/11/20 01:25:36;;;;;;;6.07;2.57;;;19.90;59.60;;;;;;4940660;28;20475;-78
2021/11/20 01:28:05;;;;;;;5.73;3.03;;;19.90;59.70;;;;;;4938760;29;20884;-77
2021/11/20 01:30:33;;;;;;;3.60;2.77;;;19.90;59.70;;;;;;4938226;29;20507;-77
2021/11/20 01:33:01;;;;;;;3.10;2.20;;;19.90;59.70;;;;;;4936530;29;20434;-79
2021/11/20 01:35:29;;;;;;;2.60;2.40;;;19.90;59.70;;;;;;4936994;28;20468;-79
2021/11/20 01:37:57;;;;;;;4.73;2.63;;;19.90;59.70;;;;;;4937405;29;20523;-77
2021/11/20 01:40:27;;;;;;;2.60;2.40;;;19.90;59.70;;;;;;4936966;29;20939;-76
2021/11/20 01:42:56;;;;;;;3.67;2.73;;;19.90;59.70;;;;;;4937758;29;20436;-77
2021/11/20 01:45:26;;;;;;;3.57;2.67;;;19.90;59.70;;;;;;4937053;29;20494;-76
2021/11/20 01:47:57;;;;;;;2.60;2.40;;;19.90;59.60;;;;;;4937548;29;20523;-78
2021/11/20 01:50:33;;;;;;;6.20;2.83;;;19.90;59.70;;;;;;4937843;29;20566;-78
2021/11/20 01:53:05;;;;;;;4.50;2.67;;;19.90;59.70;;;;;;4938236;29;20519;-77
2021/11/20 01:55:39;;;;;;;3.63;2.73;;;19.90;59.80;;;;;;4938685;29;20451;-77
2021/11/20 01:58:13;;;;;;;4.70;3.30;;;19.90;59.70;;;;;;4938833;28;20495;-79
2021/11/20 02:00:43;;;;;;;3.07;2.50;;;19.90;59.70;;;;;;4938945;29;20519;-77
2021/11/20 02:03:18;;;;;;;3.30;2.90;;;19.90;59.70;;;;;;4938747;29;20440;-79
2021/11/20 02:05:51;;;;;;;5.60;2.80;;;19.90;59.70;;;;;;4938086;29;20515;-78
2021/11/20 02:08:21;;;;;;;3.90;2.60;;;19.90;59.70;;;;;;4938695;28;20454;-77
2021/11/20 02:10:50;;;;;;;4.57;2.90;;;19.90;59.70;;;;;;4936722;29;20566;-77
2021/11/20 02:13:22;;;;;;;4.33;2.83;;;19.90;59.70;;;;;;4936701;29;20543;-77
2021/11/20 02:15:52;;;;;;;3.53;2.70;;;19.80;59.70;;;;;;4936359;29;20447;-77
2021/11/20 02:18:22;;;;;;;5.80;2.97;;;19.80;59.70;;;;;;4937385;29;20451;-76
2021/11/20 02:20:52;;;;;;;5.60;2.90;;;19.80;59.70;;;;;;4937125;29;20440;-75
2021/11/20 02:23:20;;;;;;;3.37;2.40;;;19.80;59.60;;;;;;4937244;29;20474;-76
2021/11/20 02:25:49;;;;;;;3.33;2.90;;;19.80;59.60;;;;;;4935460;29;20507;-76
2021/11/20 02:28:18;;;;;;;3.20;2.93;;;19.80;59.70;;;;;;4934579;29;20550;-77
2021/11/20 02:30:48;;;;;;;2.80;2.60;;;19.80;59.80;;;;;;4934986;28;20507;-78
2021/11/20 02:33:19;;;;;;;3.23;2.90;;;19.80;59.70;;;;;;4928389;29;20488;-77
2021/11/20 02:35:49;;;;;;;6.10;2.50;;;19.80;59.70;;;;;;4932234;29;20456;-77
2021/11/20 02:38:21;;;;;;;3.10;2.80;;;19.80;59.70;;;;;;4927158;29;20441;-77
2021/11/20 02:40:52;;;;;;;2.70;2.50;;;19.80;59.70;;;;;;4926182;29;20432;-77
2021/11/20 02:43:20;;;;;;;3.70;2.90;;;19.80;59.70;;;;;;4924723;29;20468;-77
2021/11/20 02:45:50;;;;;;;5.00;3.20;;;19.80;59.80;;;;;;4922693;29;20436;-77
2021/11/20 02:48:18;;;;;;;4.83;2.70;;;19.80;59.70;;;;;;4924835;29;20504;-77
2021/11/20 02:50:47;;;;;;;2.43;2.00;;;19.80;59.70;;;;;;4927497;29;20571;-77
2021/11/20 02:53:17;;;;;;;3.00;2.80;;;19.80;59.80;;;;;;4929128;29;20444;-77
2021/11/20 02:55:45;;;;;;;4.93;3.10;;;19.80;59.70;;;;;;4931554;29;20436;-77
2021/11/20 02:58:13;;;;;;;3.47;2.70;;;19.80;59.60;;;;;;4930140;29;20535;-77
2021/11/20 03:00:41;;;;;;;4.37;2.53;;;19.90;59.60;;;;;;4926882;29;20520;-77
2021/11/20 03:03:11;;;;;;;5.53;3.20;;;19.80;59.70;;;;;;4926867;29;20473;-77
2021/11/20 03:05:39;;;;;;;3.63;3.13;;;19.80;59.60;;;;;;4931665;29;20478;-77
2021/11/20 03:08:07;;;;;;;4.10;2.70;;;19.80;60.30;;;;;;4937184;29;20447;-79
2021/11/20 03:10:35;;;;;;;6.13;3.33;;;19.80;59.60;;;;;;4937710;29;20558;-77
2021/11/20 03:13:03;;;;;;;3.23;2.87;;;19.80;59.60;;;;;;4936938;29;20479;-77
2021/11/20 03:15:31;;;;;;;4.30;2.97;;;19.80;59.70;;;;;;4937227;28;20460;-77
2021/11/20 03:17:58;;;;;;;3.27;2.90;;;19.80;59.60;;;;;;4936818;29;20456;-76
2021/11/20 03:20:28;;;;;;;4.20;2.90;;;19.80;59.70;;;;;;4937285;29;20542;-77
2021/11/20 03:22:58;;;;;;;2.90;2.60;;;19.80;59.60;;;;;;4937424;29;20554;-77
2021/11/20 03:25:26;;;;;;;3.17;2.87;;;19.80;59.60;;;;;;4934904;29;20472;-77
2021/11/20 03:27:54;;;;;;;4.13;2.73;;;19.80;59.60;;;;;;4933588;29;20543;-76
2021/11/20 03:30:22;;;;;;;5.70;3.00;;;19.80;59.60;;;;;;4931913;29;21011;-76
2021/11/20 03:32:50;;;;;;;4.53;3.10;;;19.80;59.70;;;;;;4934655;29;20507;-77
2021/11/20 03:35:19;;;;;;;3.30;2.93;;;19.80;59.60;;;;;;4933465;29;20487;-77
2021/11/20 03:37:48;;;;;;;3.50;2.60;;;19.80;59.70;;;;;;4934005;29;20448;-77
2021/11/20 03:40:16;;;;;;;2.83;2.60;;;19.80;59.80;;;;;;4931858;29;20623;-77
2021/11/20 03:42:44;;;;;;;3.80;3.23;;;19.80;59.60;;;;;;4935925;29;20468;-77
2021/11/20 03:45:12;;;;;;;6.97;2.93;;;19.80;59.70;;;;;;4937216;29;20535;-77
2021/11/20 03:47:40;;;;;;;3.23;2.90;;;19.80;59.70;;;;;;4936927;29;20539;-76
2021/11/20 03:50:09;;;;;;;4.73;3.20;;;19.80;59.70;;;;;;4935969;29;20456;-77
2021/11/20 03:52:38;;;;;;;3.20;3.00;;;19.80;59.60;;;;;;4937030;29;20563;-77
2021/11/20 03:55:08;;;;;;;5.27;3.10;;;19.80;59.60;;;;;;4936348;29;20515;-77
2021/11/20 03:57:36;;;;;;;5.27;3.27;;;19.80;59.60;;;;;;4936736;29;20564;-77
2021/11/20 04:00:05;;;;;;;3.50;3.20;;;19.80;59.60;;;;;;4936412;29;20440;-76
2021/11/20 04:02:33;;;;;;;3.40;3.10;;;19.80;59.50;;;;;;4936107;29;21014;-77
2021/11/20 04:05:01;;;;;;;4.87;3.17;;;19.80;59.60;;;;;;4935929;29;20463;-77
2021/11/20 04:07:29;;;;;;;3.40;2.63;;;19.80;59.60;;;;;;4936744;29;20536;-77
2021/11/20 04:09:57;;;;;;;4.07;3.03;;;19.80;59.60;;;;;;4936724;29;20479;-76
2021/11/20 04:12:26;;;;;;;8.20;3.80;;;19.80;59.70;;;;;;4936025;29;20484;-76
2021/11/20 04:14:54;;;;;;;3.20;2.80;;;19.80;59.50;;;;;;4936622;29;20460;-76
2021/11/20 04:17:22;;;;;;;4.10;3.20;;;19.80;59.50;;;;;;4936514;29;20539;-77
2021/11/20 04:19:50;;;;;;;2.90;2.70;;;19.80;59.70;;;;;;4935913;29;20531;-77
2021/11/20 04:22:18;;;;;;;2.90;2.70;;;19.80;59.60;;;;;;4936146;29;20478;-76
2021/11/20 04:24:46;;;;;;;3.47;3.10;;;19.80;59.60;;;;;;4935826;29;20483;-76
2021/11/20 04:27:14;;;;;;;3.33;2.80;;;19.80;59.60;;;;;;4954859;29;20498;-76
2021/11/20 04:29:43;;;;;;;2.80;2.60;;;19.80;59.60;;;;;;4951856;28;20472;-78
2021/11/20 04:32:11;;;;;;;4.83;3.33;;;19.80;59.60;;;;;;4936256;29;20482;-77
2021/11/20 04:34:39;;;;;;;3.93;3.20;;;19.80;59.50;;;;;;4935263;28;20571;-77
2021/11/20 04:37:08;;;;;;;4.30;3.07;;;19.80;59.60;;;;;;4936103;29;20447;-77
2021/11/20 04:39:36;;;;;;;4.37;3.10;;;19.80;59.60;;;;;;4935846;29;20447;-77
2021/11/20 04:42:04;;;;;;;5.20;2.87;;;19.80;59.70;;;;;;4935460;29;20547;-77
2021/11/20 04:44:32;;;;;;;3.43;2.90;;;19.80;59.60;;;;;;4935862;29;20539;-77
2021/11/20 04:47:01;;;;;;;4.40;2.70;;;19.80;60.30;;;;;;4935983;29;20535;-77
2021/11/20 04:49:30;;;;;;;3.93;3.07;;;19.80;59.70;;;;;;4935141;29;20440;-77
2021/11/20 04:51:58;;;;;;;4.17;3.00;;;19.80;59.70;;;;;;4935544;29;20507;-77
2021/11/20 04:54:26;;;;;;;4.80;3.27;;;19.80;59.70;;;;;;4935264;29;20498;-78
2021/11/20 04:56:55;;;;;;;4.40;3.60;;;19.80;59.60;;;;;;4933714;29;20457;-78
2021/11/20 04:59:22;;;;;;;3.00;2.80;;;19.80;59.60;;;;;;4935947;29;20472;-77
2021/11/20 05:01:50;;;;;;;3.70;3.30;;;19.80;60.30;;;;;;4929292;29;20457;-77
2021/11/20 05:04:20;;;;;;;4.70;3.30;;;19.80;59.60;;;;;;4934903;29;20440;-77
2021/11/20 05:06:48;;;;;;;5.13;2.90;;;19.80;59.50;;;;;;4931939;29;20506;-77
2021/11/20 05:09:17;;;;;;;3.40;3.07;;;19.80;59.60;;;;;;4934115;29;20527;-77
2021/11/20 05:11:45;;;;;;;4.73;3.40;;;19.80;59.60;;;;;;4932814;29;20551;-77
2021/11/20 05:14:13;;;;;;;5.87;2.90;;;19.80;59.70;;;;;;4935343;29;20975;-77
2021/11/20 05:16:41;;;;;;;3.43;2.97;;;19.80;59.60;;;;;;4934477;29;20487;-76
2021/11/20 05:19:09;;;;;;;6.97;3.33;;;19.80;59.50;;;;;;4934932;29;20527;-77
2021/11/20 05:21:38;;;;;;;3.73;3.43;;;19.80;59.60;;;;;;4935547;29;20447;-77
2021/11/20 05:24:06;;;;;;;3.13;2.80;;;19.80;59.60;;;;;;4935413;29;20460;-77
2021/11/20 05:26:34;;;;;;;6.93;3.00;;;19.80;59.50;;;;;;4934768;29;20476;-77
2021/11/20 05:29:06;;;;;;;3.63;3.33;;;19.80;59.50;;;;;;4935503;29;20475;-77
2021/11/20 05:31:34;;;;;;;3.00;2.80;;;19.80;59.50;;;;;;4935068;29;20448;-77
2021/11/20 05:34:02;;;;;;;2.80;2.60;;;19.80;59.50;;;;;;4934719;29;20578;-77
2021/11/20 05:36:31;;;;;;;4.60;3.00;;;19.80;59.50;;;;;;4934343;29;20555;-77
2021/11/20 05:39:00;;;;;;;3.50;3.20;;;19.80;59.60;;;;;;4935222;29;20471;-77
2021/11/20 05:41:29;;;;;;;3.37;3.07;;;19.80;59.50;;;;;;4934841;29;21011;-77
2021/11/20 05:43:57;;;;;;;5.83;3.13;;;19.80;59.50;;;;;;4934311;29;21017;-77
2021/11/20 05:46:25;;;;;;;3.83;2.90;;;19.80;59.50;;;;;;4934404;29;20535;-77
2021/11/20 05:48:53;;;;;;;3.10;2.80;;;19.80;59.50;;;;;;4935037;29;20452;-77
2021/11/20 05:51:22;;;;;;;3.40;3.10;;;19.80;59.50;;;;;;4935108;29;20468;-77
2021/11/20 05:53:50;;;;;;;3.30;3.00;;;19.80;59.40;;;;;;4934098;29;20487;-77
2021/11/20 05:56:19;;;;;;;2.90;2.60;;;19.80;59.50;;;;;;4934290;29;20547;-76
2021/11/20 05:59:07;;;;;;;3.50;2.73;;;19.80;59.50;;;;;;4934359;29;20444;-77
2021/11/20 06:01:35;;;;;;;3.50;3.20;;;19.80;59.50;;;;;;4934028;29;20450;-77
2021/11/20 06:04:03;;;;;;;3.70;2.87;;;19.80;59.50;;;;;;4934289;29;20458;-77
2021/11/20 06:06:31;;;;;;;3.23;2.87;;;19.80;59.60;;;;;;4933918;28;20458;-77
2021/11/20 06:08:59;;;;;;;5.23;3.17;;;19.80;59.50;;;;;;4934179;29;20535;-77
2021/11/20 06:11:31;;;;;;;3.20;2.70;;;19.80;60.10;;;;;;4933885;29;20471;-77
2021/11/20 06:13:59;;;;;;;3.17;2.87;;;19.80;59.50;;;;;;4933336;29;20559;-77
2021/11/20 06:16:27;;;;;;;4.40;3.07;;;19.80;59.40;;;;;;4934716;29;20539;-77
2021/11/20 06:18:55;;;;;;;3.97;3.57;;;19.80;59.60;;;;;;4935220;29;20483;-77
2021/11/20 06:21:23;;;;;;;3.30;3.10;;;19.80;59.50;;;;;;4936185;29;20444;-77
2021/11/20 06:23:51;;;;;;;4.13;3.30;;;19.80;59.50;;;;;;4935567;29;20460;-77
2021/11/20 06:26:20;;;;;;;3.60;2.90;;;19.80;59.50;;;;;;4935936;29;20554;-76
2021/11/20 06:28:49;;;;;;;4.50;3.10;;;19.80;59.50;;;;;;4938648;29;20535;-76
2021/11/20 06:31:17;;;;;;;3.47;3.17;;;19.80;59.60;;;;;;4939791;29;20463;-78
2021/11/20 06:33:46;;;;;;;3.30;3.00;;;19.80;59.60;;;;;;4939338;29;20558;-78
2021/11/20 06:36:14;;;;;;;3.00;2.80;;;19.80;59.50;;;;;;4939815;29;20546;-77
2021/11/20 06:38:42;;;;;;;4.47;3.13;;;19.80;59.50;;;;;;4940018;29;20531;-78
2021/11/20 06:41:10;;;;;;;2.97;2.77;;;19.80;60.20;;;;;;4940126;29;20474;-78
2021/11/20 06:43:38;;;;;;;4.40;2.90;;;19.70;59.50;;;;;;4938982;29;20558;-78
2021/11/20 06:46:09;;;;;;;3.33;2.83;;;19.80;59.50;;;;;;4939737;29;20967;-78
2021/11/20 06:48:37;;;;;;;2.67;2.53;;;19.80;59.60;;;;;;4939602;29;20495;-77
2021/11/20 06:51:05;;;;;;;2.77;2.50;;;19.80;59.60;;;;;;4937729;29;20576;-77
2021/11/20 06:53:33;;;;;;;3.07;2.87;;;19.80;59.50;;;;;;4937457;29;20491;-78
2021/11/20 06:56:01;;;;;;;3.70;3.10;;;19.80;59.50;;;;;;4937982;29;20471;-77
2021/11/20 07:01:16;;;;;;;4.67;2.70;;;19.80;59.50;;;;;;4937176;28;20534;-77
2021/11/20 07:03:46;;;;;;;2.93;2.73;;;19.70;59.40;;;;;;4937779;29;20460;-77
2021/11/20 07:06:15;;;;;;;3.43;3.13;;;19.70;59.50;;;;;;4937994;29;20531;-77
2021/11/20 07:08:43;;;;;;;3.67;3.07;;;19.70;59.60;;;;;;4937710;29;20479;-77
2021/11/20 07:11:11;;;;;;;3.33;3.03;;;19.70;59.50;;;;;;4936744;29;20495;-77
2021/11/20 07:13:39;;;;;;;3.30;2.80;;;19.80;59.60;;;;;;4936931;29;20551;-77
2021/11/20 07:16:08;;;;;;;3.23;2.90;;;19.80;59.50;;;;;;4937778;29;20530;-77
2021/11/20 07:18:38;;;;;;;3.97;2.93;;;19.80;59.40;;;;;;4937459;29;20432;-77
2021/11/20 07:21:06;;;;;;;3.60;3.30;;;19.80;59.50;;;;;;4937267;29;20447;-77
2021/11/20 07:23:34;;;;;;;3.60;3.07;;;19.80;60.20;;;;;;4937492;29;20451;-77
2021/11/20 07:26:02;;;;;;;4.67;2.83;;;19.70;59.40;;;;;;4937323;29;20468;-77
2021/11/20 07:28:30;;;;;;;3.40;3.20;;;19.70;59.50;;;;;;4937042;29;20479;-77
2021/11/20 07:30:58;;;;;;;2.80;2.40;;;19.80;59.60;;;;;;4937527;29;20484;-77
2021/11/20 07:33:26;;;;;;;2.97;2.77;;;19.80;59.50;;;;;;4936334;29;20590;-77
2021/11/20 07:35:56;;;;;;;3.27;2.97;;;19.80;59.50;;;;;;4937092;29;20436;-77
2021/11/20 07:38:26;;;;;;;2.80;2.70;;;19.80;59.50;;;;;;4936123;29;20480;-78
2021/11/20 07:40:54;;;;;;;2.60;2.50;;;19.80;59.50;;;;;;4936307;29;20551;-77
2021/11/20 07:43:22;;;;;;;3.00;2.80;;;19.80;59.50;;;;;;4937061;29;20497;-77
2021/11/20 07:45:51;;;;;;;3.00;2.63;;;19.80;59.40;;;;;;4937189;29;20487;-77
2021/11/20 07:48:21;;;;;;;2.93;2.67;;;19.80;59.40;;;;;;4936634;29;20503;-77
2021/11/20 07:50:50;;;;;;;2.63;2.43;;;19.80;59.40;;;;;;4937096;29;20472;-78
2021/11/20 07:53:19;;;;;;;3.00;2.70;;;19.80;59.40;;;;;;4938334;29;20556;-78
2021/11/20 07:55:47;;;;;;;2.70;2.50;;;19.80;59.50;;;;;;4938364;29;20546;-77
2021/11/20 07:58:15;;;;;;;2.90;2.70;;;19.80;59.50;;;;;;4937952;29;20448;-77
2021/11/20 08:00:43;;;;;;;5.70;3.47;;;19.80;59.50;;;;;;4938360;29;20860;-78
2021/11/20 08:03:11;;;;;;;3.10;2.87;;;19.80;59.40;;;;;;4938180;29;20455;-78
2021/11/20 08:05:40;;;;;;;2.97;2.67;;;19.80;59.40;;;;;;4938666;29;20598;-77
2021/11/20 08:08:08;;;;;;;3.73;3.13;;;19.80;59.40;;;;;;4937847;29;21197;-77
2021/11/20 08:10:37;;;;;;;4.13;2.93;;;19.80;59.30;;;;;;4938420;29;20547;-78
2021/11/20 08:13:05;;;;;;;3.20;3.00;;;19.80;59.30;;;;;;4936836;29;21023;-78
2021/11/20 08:15:33;;;;;;;3.13;2.90;;;19.80;59.40;;;;;;4937141;29;20555;-77
2021/11/20 08:18:01;;;;;;;3.87;2.93;;;19.90;59.40;;;;;;4936743;29;20464;-77
2021/11/20 08:20:32;;;;;;;3.30;3.00;;;19.90;59.30;;;;;;4935919;29;20511;-77
2021/11/20 08:23:00;;;;;;;3.33;3.03;;;19.90;59.40;;;;;;4936556;29;20472;-77
2021/11/20 08:25:33;;;;;;;3.37;3.17;;;19.80;59.20;;;;;;4935738;28;20467;-78
2021/11/20 08:28:03;;;;;;;2.93;2.73;;;19.80;59.30;;;;;;4936158;29;20484;-78
2021/11/20 08:30:31;;;;;;;5.30;3.23;;;19.90;59.30;;;;;;4936333;29;20436;-77
2021/11/20 08:33:00;;;;;;;5.33;3.00;;;19.80;59.30;;;;;;4936001;29;20477;-77
2021/11/20 08:35:28;;;;;;;2.83;2.63;;;19.90;59.30;;;;;;4935758;29;20578;-78
2021/11/20 08:37:56;;;;;;;3.07;2.80;;;19.90;59.30;;;;;;4935661;29;20476;-78
2021/11/20 08:40:25;;;;;;;3.00;2.80;;;19.90;59.20;;;;;;4935676;29;20530;-78
2021/11/20 08:42:56;;;;;;;3.93;3.00;;;19.90;59.20;;;;;;4937988;29;20432;-78
2021/11/20 08:45:27;;;;;;;3.40;3.03;;;19.90;59.20;;;;;;4935145;29;20531;-77
2021/11/20 08:47:56;;;;;;;3.37;3.07;;;19.90;59.30;;;;;;4935809;29;20499;-78
2021/11/20 08:50:25;;;;;;;3.60;3.30;;;19.90;59.20;;;;;;4935540;28;20454;-77
2021/11/20 08:52:53;;;;;;;3.00;2.80;;;19.90;59.90;;;;;;4935320;29;20535;-78
2021/11/20 08:55:23;;;;;;;3.00;2.77;;;19.90;59.30;;;;;;4931805;29;20991;-77
2021/11/20 08:57:51;;;;;;;3.17;2.97;;;19.90;59.10;;;;;;4935144;29;20554;-78
2021/11/20 09:00:21;;;;;;;3.00;2.80;;;19.90;59.20;;;;;;4935591;29;20530;-78
2021/11/20 09:02:54;;;;;;;2.90;2.70;;;19.90;59.20;;;;;;4936179;29;20441;-80
2021/11/20 09:05:25;;;;;;;3.20;2.90;;;19.90;59.10;;;;;;4935936;29;20471;-77
2021/11/20 09:07:55;;;;;;;6.70;3.33;;;19.90;59.10;;;;;;4935436;28;20539;-77
2021/11/20 09:10:26;;;;;;;3.60;3.30;;;19.90;59.10;;;;;;4935241;29;20464;-77
2021/11/20 09:12:55;;;;;;;3.37;2.90;;;19.90;59.10;;;;;;4935200;29;20504;-77
2021/11/20 09:15:27;;;;;;;4.20;3.33;;;19.90;59.10;;;;;;4934822;29;20487;-77
2021/11/20 09:17:56;;;;;;;4.70;3.10;;;19.90;59.10;;;;;;4935534;29;20503;-77
2021/11/20 09:20:26;;;;;;;3.43;3.13;;;20.00;59.20;;;;;;4935366;29;20444;-77
2021/11/20 09:22:53;;;;;;;3.63;3.30;;;20.00;59.10;;;;;;4934153;29;20447;-77
2021/11/20 09:25:22;;;;;;;3.27;2.97;;;20.00;59.10;;;;;;4935090;29;20499;-77
2021/11/20 09:28:11;;;;;;;3.00;2.80;;;20.00;59.10;;;;;;4934931;29;20451;-77
2021/11/20 09:30:40;;;;;;;3.40;2.90;;;20.00;59.00;;;;;;4934942;29;20554;-77
2021/11/20 09:33:10;;;;;;;3.10;2.90;;;20.00;59.00;;;;;;4934826;29;20483;-77
2021/11/20 09:35:38;;;;;;;3.80;3.07;;;20.00;58.90;;;;;;4933248;29;20476;-77
2021/11/20 09:38:06;;;;;;;4.20;2.90;;;20.00;59.10;;;;;;4934525;29;20502;-77
2021/11/20 09:40:37;;;;;;;4.30;3.40;;;20.00;59.60;;;;;;4935822;29;20496;-78
2021/11/20 09:43:05;;;;;;;3.63;3.30;;;20.10;59.10;;;;;;4936243;29;20468;-77
2021/11/20 09:45:35;;;;;;;4.17;3.77;;;20.10;59.00;;;;;;4934870;29;20539;-78
2021/11/20 09:48:07;;;;;;;3.73;3.43;;;20.10;58.90;;;;;;4934007;29;20550;-78
2021/11/20 09:50:39;;;;;;;3.70;3.40;;;20.10;58.80;;;;;;4935158;28;20543;-78
2021/11/20 09:53:07;;;;;;;4.10;3.50;;;20.10;58.80;;;;;;4934704;29;20527;-78
2021/11/20 09:55:40;;;;;;;3.90;3.23;;;20.10;58.80;;;;;;4934668;29;20505;-77
2021/11/20 09:58:11;;;;;;;3.73;3.40;;;20.20;58.90;;;;;;4934140;29;20499;-77
2021/11/20 10:01:06;;;;;;;3.10;2.90;;;20.20;58.80;;;;;;4935288;29;20486;-78
2021/11/20 10:03:39;;;;;;;4.10;3.73;;;20.20;58.80;;;;;;4933240;29;20463;-77
2021/11/20 10:06:10;;;;;;;3.13;2.90;;;20.20;58.90;;;;;;4935184;29;20479;-77
2021/11/20 10:08:40;;;;;;;3.70;3.30;;;20.20;58.80;;;;;;4934528;29;20532;-78
2021/11/20 10:11:28;;;;;;;2.83;2.73;;;20.20;58.80;;;;;;4934096;29;20456;-78
2021/11/20 10:13:57;;;;;;;3.10;2.80;;;20.20;58.80;;;;;;4934284;29;20531;-78
2021/11/20 10:16:28;;;;;;;3.20;2.90;;;20.20;58.90;;;;;;4934268;29;20507;-78
2021/11/20 10:18:59;;;;;;;3.40;3.10;;;20.20;58.80;;;;;;4934363;29;20474;-78
2021/11/20 10:21:32;;;;;;;3.70;2.90;;;20.20;59.10;;;;;;4933616;29;20895;-77
2021/11/20 10:24:05;;;;;;;3.17;2.97;;;20.20;58.80;;;;;;4935536;29;20464;-78
2021/11/20 10:26:47;;;;;;;2.97;2.77;;;20.20;58.90;;;;;;4936693;29;20566;-78
2021/11/20 10:29:33;;;;;;;3.93;3.63;;;20.20;58.80;;;;;;4935965;29;20448;-77
2021/11/20 10:32:08;;;;;;;3.60;3.30;;;20.20;58.90;;;;;;4935691;29;20518;-77
2021/11/20 10:34:39;;;;;;;3.37;2.80;;;20.20;58.80;;;;;;4935215;29;20503;-78
2021/11/20 10:37:16;;;;;;;3.73;3.37;;;20.20;58.80;;;;;;4935467;29;20528;-78
2021/11/20 10:39:55;;;;;;;3.43;3.10;;;20.20;58.80;;;;;;4925352;29;20555;-78
2021/11/20 10:42:24;;;;;;;3.60;3.30;;;20.20;58.70;;;;;;4936732;29;20503;-78
2021/11/20 10:44:54;;;;;;;3.60;3.30;;;20.20;58.90;;;;;;4936436;29;20496;-78
2021/11/20 10:47:29;;;;;;;3.67;3.30;;;20.20;59.30;;;;;;4935404;29;20531;-77
2021/11/20 10:50:17;;;;;;;3.40;3.10;;;20.20;58.70;;;;;;4936324;29;20978;-78
2021/11/20 10:53:15;;;;;;;3.83;3.53;;;20.20;58.80;;;;;;4936418;29;20475;-78
2021/11/20 10:55:47;;;;;;;3.77;3.30;;;20.20;58.70;;;;;;4935707;29;20564;-77
2021/11/20 10:58:51;;;;;;;3.50;3.20;;;20.20;58.70;;;;;;4936325;29;20516;-77
2021/11/20 11:01:44;;;;;;;3.17;2.87;;;20.20;58.70;;;;;;4936674;29;20439;-78
2021/11/20 11:04:22;;;;;;;3.00;2.80;;;20.20;58.80;;;;;;4935882;29;20991;-77
2021/11/20 11:06:56;;;;;;;4.00;3.60;;;20.20;58.80;;;;;;4936443;29;20522;-78
2021/11/20 11:09:47;;;;;;;3.30;3.00;;;20.20;58.90;;;;;;4936434;29;20462;-78
2021/11/20 11:12:22;;;;;;;3.40;3.10;;;20.20;58.90;;;;;;4934182;29;20449;-78
2021/11/20 11:15:17;;;;;;;4.17;3.50;;;20.20;58.70;;;;;;4939504;29;20463;-78
2021/11/20 11:18:30;;;;;;;3.73;3.43;;;20.20;58.80;;;;;;4937818;29;20426;-77
2021/11/20 11:21:33;;;;;;;3.67;3.37;;;20.20;58.70;;;;;;4937518;29;20526;-78
2021/11/20 11:24:26;;;;;;;3.77;3.47;;;20.20;58.80;;;;;;4924102;29;20459;-77
2021/11/20 11:26:56;;;;;;;3.57;3.27;;;20.20;58.90;;;;;;4914404;29;20539;-78
2021/11/20 11:29:30;;;;;;;4.27;3.90;;;20.20;58.80;;;;;;4939255;29;20470;-77
2021/11/20 11:31:58;;;;;;;3.70;3.40;;;20.20;58.70;;;;;;4938614;29;20482;-78
2021/11/20 11:34:28;;;;;;;3.27;3.07;;;20.20;58.90;;;;;;4939184;29;20476;-77
2021/11/20 11:37:19;;;;;;;3.43;3.17;;;20.20;58.70;;;;;;4938564;29;20484;-78
2021/11/20 11:39:50;;;;;;;3.70;3.43;;;20.20;58.70;;;;;;4937225;29;20472;-78
2021/11/20 11:42:34;;;;;;;6.63;3.60;;;20.20;58.70;;;;;;4936424;29;20440;-78
2021/11/20 11:45:08;;;;;;;4.20;3.80;;;20.20;58.60;;;;;;4937073;29;20475;-77
2021/11/20 11:47:49;;;;;;;4.33;3.93;;;20.20;58.70;;;;;;4937122;29;20467;-77
2021/11/20 11:50:45;;;;;;;3.70;3.40;;;20.20;58.60;;;;;;4936268;29;20487;-78
2021/11/20 11:53:30;;;;;;;4.97;3.93;;;20.20;58.50;;;;;;4917982;29;20531;-78
2021/11/20 11:55:58;;;;;;;3.67;3.40;;;20.20;58.60;;;;;;4936036;29;20571;-78
2021/11/20 11:58:48;;;;;;;3.70;3.47;;;20.20;58.60;;;;;;4936813;29;20480;-78
2021/11/20 12:01:19;;;;;;;4.73;3.90;;;20.20;58.70;;;;;;4932767;29;20481;-78
2021/11/20 12:04:00;;;;;;;5.07;4.47;;;20.20;58.70;;;;;;4927131;29;20479;-77
2021/11/20 12:06:53;;;;;;;5.63;4.03;;;20.20;58.70;;;;;;4928663;29;20472;-77
2021/11/20 12:09:31;;;;;;;3.90;3.60;;;20.20;59.10;;;;;;4932185;29;20531;-78
2021/11/20 12:12:08;;;;;;;3.73;3.43;;;20.20;58.60;;;;;;4926683;29;20476;-78
2021/11/20 12:14:38;;;;;;;6.30;3.47;;;20.20;58.60;;;;;;4926187;29;20535;-78
2021/11/20 12:17:28;;;;;;;4.30;3.93;;;20.20;58.60;;;;;;4927603;29;20471;-78
2021/11/20 12:20:12;;;;;;;3.90;3.60;;;20.20;58.50;;;;;;4927337;29;20455;-77
2021/11/20 12:22:56;;;;;;;4.33;4.00;;;20.20;58.50;;;;;;4930642;29;20451;-77
2021/11/20 12:25:30;;;;;;;3.70;3.47;;;20.20;58.50;;;;;;4929524;29;20449;-77
2021/11/20 12:27:59;;;;;;;4.40;3.97;;;20.20;58.60;;;;;;4933916;29;20463;-79
2021/11/20 12:30:43;;;;;;;3.90;3.60;;;20.20;59.10;;;;;;4932878;29;20421;-78
2021/11/20 12:33:33;;;;;;;4.00;3.70;;;20.20;58.60;;;;;;4934067;29;20484;-78
2021/11/20 12:36:11;;;;;;;4.17;3.77;;;20.20;58.60;;;;;;4934056;29;20495;-78
2021/11/20 12:38:49;;;;;;;4.03;3.73;;;20.20;58.50;;;;;;4932169;29;20468;-78
2021/11/20 12:41:25;;;;;;;3.70;3.40;;;20.20;58.60;;;;;;4932910;29;20527;-78
2021/11/20 12:44:01;;;;;;;3.97;3.67;;;20.20;58.60;;;;;;4935451;29;20490;-78
2021/11/20 12:46:50;;;;;;;4.00;3.70;;;20.20;58.60;;;;;;4928149;29;20429;-78
2021/11/20 12:49:29;;;;;;;4.40;4.00;;;20.20;58.60;;;;;;4929613;29;20540;-78
2021/11/20 12:52:20;;;;;;;4.30;3.80;;;20.20;58.70;;;;;;4927388;29;20447;-78
2021/11/20 12:54:56;;;;;;;3.77;3.47;;;20.20;58.60;;;;;;4925018;29;20563;-78
2021/11/20 12:57:27;;;;;;;6.13;4.20;;;20.20;58.50;;;;;;4928543;29;20476;-78
2021/11/20 12:59:56;;;;;;;3.97;3.67;;;20.20;58.50;;;;;;4929181;28;20449;-77
2021/11/20 13:02:43;;;;;;;4.70;3.90;;;20.20;58.50;;;;;;4930545;29;20451;-78
2021/11/20 13:05:20;;;;;;;4.27;3.97;;;20.20;58.50;;;;;;4926273;29;20543;-78
2021/11/20 13:07:50;;;;;;;4.67;3.97;;;20.20;58.60;;;;;;4927643;29;20526;-78
2021/11/20 13:10:26;;;;;;;4.87;3.93;;;20.20;58.50;;;;;;4925378;29;20528;-78
2021/11/20 13:12:59;;;;;;;3.80;3.50;;;20.20;58.60;;;;;;4926916;29;20480;-78